Time;durP1;ratioP1;P1;durP2;ratioP2;P2;SDS_P1;SDS_P2;PMS_P1;PMS_P2;Temp;Humidity;BMP_temperature;BMP_pressure;BME280_temperature;BME280_humidity;BME280_pressure;Samples;Min_cycle;Max_cycle;Signal;HPM_P1;HPM_P2
2022/04/29 00:00:18;;;;;;;11.05;8.00;;;;;;;;;;5047291;28;20052;-73
2022/04/29 00:02:45;;;;;;;20.30;8.50;;;;;;;;;;5046184;28;20021;-73
2022/04/29 00:05:12;;;;;;;14.80;9.57;;;;;;;;;;5064332;28;20408;-74
2022/04/29 00:07:39;;;;;;;17.92;8.77;;;;;;;;;;5046843;28;20064;-74
2022/04/29 00:10:05;;;;;;;12.50;8.30;;;;;;;;;;5057507;28;20029;-75
2022/04/29 00:12:32;;;;;;;11.75;7.38;;;;;;;;;;5046832;28;20083;-74
2022/04/29 00:14:59;;;;;;;16.90;9.27;;;;;;;;;;5043817;28;20060;-75
2022/04/29 00:17:25;;;;;;;16.15;8.32;;;;;;;;;;5063171;28;20445;-73
2022/04/29 00:19:51;;;;;;;18.20;8.57;;;;;;;;;;5050102;28;20176;-74
2022/04/29 00:22:17;;;;;;;16.70;9.05;;;;;;;;;;5044692;28;20402;-74
2022/04/29 00:24:44;;;;;;;18.58;10.27;;;;;;;;;;5045503;28;20104;-76
2022/04/29 00:27:10;;;;;;;17.90;10.32;;;;;;;;;;5043954;28;20032;-75
2022/04/29 00:29:36;;;;;;;16.98;8.60;;;;;;;;;;5044888;28;20656;-75
2022/04/29 00:32:02;;;;;;;17.52;9.75;;;;;;;;;;5043386;28;20040;-74
2022/04/29 00:34:28;;;;;;;15.15;9.13;;;;;;;;;;5046284;28;20111;-73
2022/04/29 00:36:54;;;;;;;15.63;10.38;;;;;;;;;;5041053;28;20032;-75
2022/04/29 00:39:20;;;;;;;20.13;10.05;;;;;;;;;;5043840;28;20033;-76
2022/04/29 00:41:47;;;;;;;17.05;9.77;;;;;;;;;;5047586;28;20089;-75
2022/04/29 00:44:14;;;;;;;20.55;9.88;;;;;;;;;;5042592;28;20028;-75
2022/04/29 00:46:41;;;;;;;16.00;10.18;;;;;;;;;;5043721;28;20610;-73
2022/04/29 00:49:07;;;;;;;17.75;9.75;;;;;;;;;;5045994;28;20471;-74
2022/04/29 00:51:34;;;;;;;20.48;10.55;;;;;;;;;;5049024;28;20038;-76
2022/04/29 00:54:01;;;;;;;20.20;11.15;;;;;;;;;;5062157;28;20405;-75
2022/04/29 00:56:29;;;;;;;16.77;9.98;;;;;;;;;;5041999;28;20028;-74
2022/04/29 00:59:03;;;;;;;18.50;12.02;;;;;;;;;;5046000;28;20113;-75
2022/04/29 01:01:29;;;;;;;19.48;10.85;;;;;;;;;;5043302;28;20025;-74
2022/04/29 01:03:56;;;;;;;21.10;10.82;;;;;;;;;;5046398;28;20032;-74
2022/04/29 01:06:25;;;;;;;22.83;10.38;;;;;;;;;;5044000;28;20025;-74
2022/04/29 01:08:51;;;;;;;19.90;10.10;;;;;;;;;;5045298;28;20025;-74
2022/04/29 01:11:20;;;;;;;20.23;10.60;;;;;;;;;;5043757;28;20206;-74
2022/04/29 01:13:46;;;;;;;18.02;10.18;;;;;;;;;;5051181;28;20115;-74
2022/04/29 01:16:12;;;;;;;19.13;10.57;;;;;;;;;;5047939;28;20116;-74
2022/04/29 01:18:39;;;;;;;13.32;9.40;;;;;;;;;;5041758;28;20032;-74
2022/04/29 01:21:06;;;;;;;17.40;9.48;;;;;;;;;;5046267;28;20436;-75
2022/04/29 01:23:35;;;;;;;20.42;10.63;;;;;;;;;;5049417;28;20098;-75
2022/04/29 01:26:01;;;;;;;15.25;9.15;;;;;;;;;;5045278;28;20016;-74
2022/04/29 01:28:29;;;;;;;15.38;9.18;;;;;;;;;;5036099;28;20774;-75
2022/04/29 01:30:56;;;;;;;16.67;10.63;;;;;;;;;;5040494;28;20051;-75
2022/04/29 01:33:22;;;;;;;19.48;9.77;;;;;;;;;;5044233;28;20112;-74
2022/04/29 01:35:48;;;;;;;18.00;9.73;;;;;;;;;;5060875;28;20037;-75
2022/04/29 01:38:14;;;;;;;17.77;9.40;;;;;;;;;;5044446;28;20089;-74
2022/04/29 01:40:40;;;;;;;19.70;10.48;;;;;;;;;;5055459;28;20452;-75
2022/04/29 01:43:06;;;;;;;14.27;9.82;;;;;;;;;;5044708;28;20079;-74
2022/04/29 01:45:33;;;;;;;20.92;10.52;;;;;;;;;;5043982;28;20048;-75
2022/04/29 01:47:59;;;;;;;26.33;9.40;;;;;;;;;;5045137;28;20021;-73
2022/04/29 01:50:26;;;;;;;18.20;10.50;;;;;;;;;;5043271;28;20124;-74
2022/04/29 01:52:52;;;;;;;17.40;10.38;;;;;;;;;;5040474;28;20129;-74
2022/04/29 01:55:18;;;;;;;18.50;10.32;;;;;;;;;;5043614;28;20025;-75
2022/04/29 01:57:45;;;;;;;19.58;10.73;;;;;;;;;;5040108;28;20060;-74
2022/04/29 02:00:11;;;;;;;19.17;10.10;;;;;;;;;;5044073;28;20030;-76
2022/04/29 02:02:37;;;;;;;21.02;11.90;;;;;;;;;;5042914;28;20453;-74
2022/04/29 02:05:04;;;;;;;22.52;12.05;;;;;;;;;;5053325;28;20037;-74
2022/04/29 02:07:30;;;;;;;22.25;11.73;;;;;;;;;;5040890;28;20029;-74
2022/04/29 02:09:56;;;;;;;20.02;11.10;;;;;;;;;;5057428;28;20243;-73
2022/04/29 02:12:22;;;;;;;19.00;10.70;;;;;;;;;;5053022;28;20037;-73
2022/04/29 02:14:48;;;;;;;21.30;10.38;;;;;;;;;;5054028;28;20045;-74
2022/04/29 02:17:15;;;;;;;16.67;10.10;;;;;;;;;;5043964;28;20368;-74
2022/04/29 02:19:41;;;;;;;22.15;10.35;;;;;;;;;;5046651;28;20087;-73
2022/04/29 02:22:08;;;;;;;19.63;11.35;;;;;;;;;;5051143;28;20424;-72
2022/04/29 02:24:34;;;;;;;17.30;9.45;;;;;;;;;;5054684;28;20021;-72
2022/04/29 02:27:02;;;;;;;17.40;9.85;;;;;;;;;;5052550;28;20032;-72
2022/04/29 02:29:28;;;;;;;19.90;10.80;;;;;;;;;;5052125;28;20025;-74
2022/04/29 02:31:58;;;;;;;27.75;11.00;;;;;;;;;;5044048;28;20056;-74
2022/04/29 02:34:24;;;;;;;19.75;10.85;;;;;;;;;;5045959;28;20029;-74
2022/04/29 02:36:50;;;;;;;20.63;11.02;;;;;;;;;;5043315;28;20035;-74
2022/04/29 02:39:16;;;;;;;26.58;12.35;;;;;;;;;;5044329;28;20025;-74
2022/04/29 02:41:42;;;;;;;24.48;13.20;;;;;;;;;;5051222;28;20025;-74
2022/04/29 02:44:08;;;;;;;22.88;11.77;;;;;;;;;;5050137;28;20090;-74
2022/04/29 02:46:35;;;;;;;22.30;11.27;;;;;;;;;;5048699;28;20028;-74
2022/04/29 02:49:01;;;;;;;22.60;10.93;;;;;;;;;;5051868;28;20029;-74
2022/04/29 02:51:27;;;;;;;20.95;11.75;;;;;;;;;;5047916;28;20021;-74
2022/04/29 02:53:53;;;;;;;22.02;11.88;;;;;;;;;;5055144;28;20088;-75
2022/04/29 02:56:19;;;;;;;24.75;12.60;;;;;;;;;;5054092;28;20033;-73
2022/04/29 02:58:45;;;;;;;21.10;12.68;;;;;;;;;;5052035;28;20060;-75
2022/04/29 03:01:12;;;;;;;20.52;11.35;;;;;;;;;;5048562;28;20029;-75
2022/04/29 03:03:38;;;;;;;18.40;10.93;;;;;;;;;;5050164;28;20033;-75
2022/04/29 03:06:04;;;;;;;21.15;10.70;;;;;;;;;;5046692;28;20505;-74
2022/04/29 03:08:30;;;;;;;21.38;11.20;;;;;;;;;;5045718;28;20158;-76
2022/04/29 03:10:56;;;;;;;17.95;11.23;;;;;;;;;;5040024;28;20018;-75
2022/04/29 03:13:22;;;;;;;21.05;11.13;;;;;;;;;;5043742;28;20048;-74
2022/04/29 03:15:48;;;;;;;20.48;11.55;;;;;;;;;;5051829;28;20095;-74
2022/04/29 03:18:23;;;;;;;23.15;11.80;;;;;;;;;;5046544;28;20144;-76
2022/04/29 03:20:50;;;;;;;27.30;11.68;;;;;;;;;;5047181;28;20105;-74
2022/04/29 03:23:17;;;;;;;22.55;11.20;;;;;;;;;;5046803;28;20029;-75
2022/04/29 03:25:43;;;;;;;21.63;12.30;;;;;;;;;;5045919;28;20023;-74
2022/04/29 03:28:09;;;;;;;24.50;12.32;;;;;;;;;;5043073;28;20597;-74
2022/04/29 03:30:36;;;;;;;23.13;12.07;;;;;;;;;;5046849;28;20036;-74
2022/04/29 03:33:03;;;;;;;21.77;12.00;;;;;;;;;;5047425;28;20048;-75
2022/04/29 03:35:29;;;;;;;23.55;10.98;;;;;;;;;;5044003;28;20057;-73
2022/04/29 03:37:55;;;;;;;22.60;11.55;;;;;;;;;;5042331;28;20128;-74
2022/04/29 03:40:22;;;;;;;21.00;10.63;;;;;;;;;;5047520;28;20105;-74
2022/04/29 03:42:55;;;;;;;20.23;11.25;;;;;;;;;;5044759;28;20068;-73
2022/04/29 03:45:22;;;;;;;22.55;10.95;;;;;;;;;;5052532;28;20143;-74
2022/04/29 03:47:48;;;;;;;20.88;11.90;;;;;;;;;;5048802;28;20244;-74
2022/04/29 03:50:14;;;;;;;19.58;11.23;;;;;;;;;;5056654;28;20416;-75
2022/04/29 03:52:53;;;;;;;19.63;12.02;;;;;;;;;;5049716;28;20429;-75
2022/04/29 03:55:23;;;;;;;17.48;11.27;;;;;;;;;;5055074;28;20042;-75
2022/04/29 03:57:50;;;;;;;19.73;10.38;;;;;;;;;;5070289;28;20055;-75
2022/04/29 04:00:16;;;;;;;20.70;12.07;;;;;;;;;;5050092;28;20044;-76
2022/04/29 04:02:42;;;;;;;25.98;11.48;;;;;;;;;;5055178;28;20036;-74
2022/04/29 04:05:09;;;;;;;19.70;10.55;;;;;;;;;;5049332;28;20101;-74
2022/04/29 04:07:35;;;;;;;21.63;10.35;;;;;;;;;;5043884;28;20040;-74
2022/04/29 04:10:02;;;;;;;20.77;10.25;;;;;;;;;;5044695;28;20049;-74
2022/04/29 04:12:37;;;;;;;18.13;11.15;;;;;;;;;;5055600;28;20040;-75
2022/04/29 04:15:03;;;;;;;21.98;10.98;;;;;;;;;;5003066;28;1253855;-74
2022/04/29 04:17:29;;;;;;;19.70;10.13;;;;;;;;;;5047839;28;20112;-74
2022/04/29 04:19:55;;;;;;;21.75;11.50;;;;;;;;;;5044942;28;20025;-74
2022/04/29 04:22:21;;;;;;;21.15;12.40;;;;;;;;;;5050140;28;20032;-74
2022/04/29 04:24:48;;;;;;;20.77;12.10;;;;;;;;;;5051119;28;21094;-73
2022/04/29 04:27:14;;;;;;;20.42;10.68;;;;;;;;;;5049085;28;20110;-74
2022/04/29 04:29:40;;;;;;;25.98;11.95;;;;;;;;;;5047605;28;20384;-75
2022/04/29 04:32:06;;;;;;;19.08;10.48;;;;;;;;;;5046881;28;20017;-75
2022/04/29 04:34:50;;;;;;;17.33;10.10;;;;;;;;;;5062889;28;20426;-74
2022/04/29 04:37:20;;;;;;;21.45;10.88;;;;;;;;;;5050879;28;20028;-73
2022/04/29 04:39:46;;;;;;;27.45;11.63;;;;;;;;;;5045289;28;20091;-73
2022/04/29 04:42:12;;;;;;;20.63;11.50;;;;;;;;;;5047031;28;20047;-74
2022/04/29 04:44:39;;;;;;;24.42;11.57;;;;;;;;;;5039430;28;20095;-75
2022/04/29 04:47:08;;;;;;;23.80;12.85;;;;;;;;;;5045406;28;20143;-75
2022/04/29 04:49:34;;;;;;;22.17;11.73;;;;;;;;;;5044914;28;20068;-74
2022/04/29 04:52:01;;;;;;;23.30;11.35;;;;;;;;;;5045287;28;20103;-74
2022/04/29 04:54:27;;;;;;;24.13;11.13;;;;;;;;;;5047262;28;20191;-74
2022/04/29 04:56:53;;;;;;;22.50;11.32;;;;;;;;;;5049830;28;20025;-75
2022/04/29 04:59:19;;;;;;;20.40;11.52;;;;;;;;;;5045949;28;20031;-74
2022/04/29 05:01:45;;;;;;;20.70;12.50;;;;;;;;;;5043352;28;20028;-74
2022/04/29 05:04:15;;;;;;;23.55;11.25;;;;;;;;;;5045658;28;20025;-74
2022/04/29 05:06:41;;;;;;;21.05;10.95;;;;;;;;;;5046396;28;20071;-73
2022/04/29 05:09:07;;;;;;;22.13;12.13;;;;;;;;;;5049989;28;20041;-75
2022/04/29 05:11:34;;;;;;;23.33;12.65;;;;;;;;;;5046830;28;20100;-74
2022/04/29 05:14:00;;;;;;;22.85;11.10;;;;;;;;;;5043762;28;20423;-75
2022/04/29 05:16:26;;;;;;;22.00;10.43;;;;;;;;;;5046449;28;20037;-74
2022/04/29 05:18:52;;;;;;;22.15;11.68;;;;;;;;;;5059363;28;20040;-75
2022/04/29 05:21:19;;;;;;;20.45;10.95;;;;;;;;;;5048095;28;20095;-74
2022/04/29 05:23:46;;;;;;;18.95;9.85;;;;;;;;;;5046339;28;20040;-74
2022/04/29 05:26:12;;;;;;;22.23;10.02;;;;;;;;;;5051534;28;20021;-74
2022/04/29 05:28:42;;;;;;;22.75;10.65;;;;;;;;;;5046594;28;20745;-75
2022/04/29 05:31:08;;;;;;;19.80;11.07;;;;;;;;;;5060696;28;20031;-75
2022/04/29 05:33:35;;;;;;;19.50;10.75;;;;;;;;;;5047509;28;20029;-74
2022/04/29 05:36:01;;;;;;;18.38;10.30;;;;;;;;;;5048700;28;20029;-74
2022/04/29 05:43:58;;;;;;;25.10;10.70;;;;;;;;;;5042896;28;20090;-75
2022/04/29 05:46:24;;;;;;;16.00;9.63;;;;;;;;;;5037696;28;20040;-74
2022/04/29 05:48:50;;;;;;;18.77;10.40;;;;;;;;;;5058492;28;20405;-75
2022/04/29 05:51:16;;;;;;;21.58;10.48;;;;;;;;;;5047523;28;20108;-75
2022/04/29 05:53:42;;;;;;;20.35;10.02;;;;;;;;;;5046053;28;20029;-75
2022/04/29 05:56:08;;;;;;;22.23;10.23;;;;;;;;;;5056333;28;20040;-74
2022/04/29 05:58:34;;;;;;;20.30;10.55;;;;;;;;;;5044339;28;20030;-75
2022/04/29 06:01:00;;;;;;;17.55;9.75;;;;;;;;;;5045716;28;20053;-75
2022/04/29 06:03:26;;;;;;;20.30;9.95;;;;;;;;;;5051560;28;20506;-76
2022/04/29 06:05:52;;;;;;;21.83;10.23;;;;;;;;;;5044795;28;20045;-73
2022/04/29 06:08:18;;;;;;;20.35;10.98;;;;;;;;;;5046118;28;20037;-73
2022/04/29 06:10:44;;;;;;;21.15;11.07;;;;;;;;;;5058750;28;20036;-72
2022/04/29 06:13:11;;;;;;;20.92;10.27;;;;;;;;;;5042870;28;20317;-74
2022/04/29 06:15:37;;;;;;;17.25;9.95;;;;;;;;;;5040342;28;20043;-73
2022/04/29 06:18:03;;;;;;;19.08;10.10;;;;;;;;;;5042381;28;20079;-73
2022/04/29 06:20:29;;;;;;;18.88;10.68;;;;;;;;;;5044150;28;20450;-74
2022/04/29 06:22:55;;;;;;;16.35;9.65;;;;;;;;;;5046303;28;20101;-74
2022/04/29 06:25:22;;;;;;;19.08;11.40;;;;;;;;;;5044203;28;20024;-74
2022/04/29 06:27:48;;;;;;;17.42;10.65;;;;;;;;;;5033668;28;20128;-73
2022/04/29 06:30:14;;;;;;;20.08;9.93;;;;;;;;;;5041697;28;20127;-73
2022/04/29 06:32:40;;;;;;;23.92;12.23;;;;;;;;;;5035661;28;20072;-73
2022/04/29 06:35:07;;;;;;;16.15;10.13;;;;;;;;;;5043504;28;20029;-74
2022/04/29 06:37:33;;;;;;;17.50;10.73;;;;;;;;;;5041382;28;20033;-74
2022/04/29 06:39:59;;;;;;;17.23;10.60;;;;;;;;;;5042103;28;20033;-74
2022/04/29 06:42:25;;;;;;;19.52;11.15;;;;;;;;;;5041849;28;20132;-74
2022/04/29 06:44:51;;;;;;;19.80;10.15;;;;;;;;;;5041426;28;20075;-72
2022/04/29 06:47:18;;;;;;;21.05;11.25;;;;;;;;;;5044679;28;20425;-74
2022/04/29 06:49:44;;;;;;;19.77;10.70;;;;;;;;;;5039509;28;20029;-74
2022/04/29 06:52:10;;;;;;;17.25;9.93;;;;;;;;;;5043764;28;20185;-75
2022/04/29 06:54:36;;;;;;;22.33;10.40;;;;;;;;;;5042092;28;20039;-74
2022/04/29 06:57:03;;;;;;;19.05;10.02;;;;;;;;;;5042315;28;20028;-74
2022/04/29 06:59:29;;;;;;;16.15;9.95;;;;;;;;;;5040329;28;20070;-75
2022/04/29 07:01:55;;;;;;;20.45;11.73;;;;;;;;;;5046187;28;20026;-74
2022/04/29 07:04:25;;;;;;;24.30;11.10;;;;;;;;;;5039099;28;20077;-74
2022/04/29 07:06:54;;;;;;;16.67;10.70;;;;;;;;;;5041372;28;20079;-74
2022/04/29 07:09:20;;;;;;;20.38;10.45;;;;;;;;;;5042326;28;20022;-74
2022/04/29 07:11:46;;;;;;;18.52;11.07;;;;;;;;;;5040226;28;20711;-73
2022/04/29 07:14:12;;;;;;;17.00;9.73;;;;;;;;;;5037710;28;20053;-74
2022/04/29 07:16:38;;;;;;;18.15;10.25;;;;;;;;;;5044087;28;20021;-74
2022/04/29 07:19:04;;;;;;;18.67;10.52;;;;;;;;;;5046889;28;20082;-73
2022/04/29 07:21:30;;;;;;;17.58;10.20;;;;;;;;;;5043355;28;20107;-73
2022/04/29 07:23:56;;;;;;;19.55;9.48;;;;;;;;;;5048913;28;20036;-74
2022/04/29 07:26:23;;;;;;;15.93;9.60;;;;;;;;;;5047965;28;20108;-75
2022/04/29 07:28:50;;;;;;;19.33;8.52;;;;;;;;;;5046799;28;20021;-73
2022/04/29 07:31:16;;;;;;;15.95;9.32;;;;;;;;;;5052213;28;20433;-76
2022/04/29 07:33:42;;;;;;;14.80;8.75;;;;;;;;;;5049977;28;20036;-75
2022/04/29 07:41:47;;;;;;;18.83;9.77;;;;;;;;;;5043144;28;20513;-74
2022/04/29 07:44:13;;;;;;;18.52;8.82;;;;;;;;;;5045805;28;20048;-75
2022/04/29 07:46:42;;;;;;;13.10;8.65;;;;;;;;;;5047061;28;20315;-76
2022/04/29 07:49:08;;;;;;;18.88;8.80;;;;;;;;;;5048771;28;20438;-74
2022/04/29 07:51:34;;;;;;;11.93;8.57;;;;;;;;;;5042202;28;20036;-74
2022/04/29 07:54:00;;;;;;;13.38;8.73;;;;;;;;;;5049257;28;20068;-74
2022/04/29 07:56:27;;;;;;;15.38;9.90;;;;;;;;;;5049153;28;20455;-75
2022/04/29 07:58:55;;;;;;;11.80;7.65;;;;;;;;;;5047628;28;20043;-75
2022/04/29 08:01:21;;;;;;;11.60;9.05;;;;;;;;;;5050904;28;20044;-73
2022/04/29 08:03:47;;;;;;;13.77;9.00;;;;;;;;;;5045253;28;20032;-75
2022/04/29 08:06:13;;;;;;;18.05;8.95;;;;;;;;;;5048592;28;20032;-74
2022/04/29 08:08:40;;;;;;;14.80;8.60;;;;;;;;;;5046589;28;20033;-76
2022/04/29 08:11:07;;;;;;;13.18;7.88;;;;;;;;;;5046200;28;20119;-75
2022/04/29 08:13:34;;;;;;;15.70;7.88;;;;;;;;;;5046033;28;20049;-75
2022/04/29 08:16:01;;;;;;;12.30;7.55;;;;;;;;;;5061387;28;20494;-75
2022/04/29 08:18:27;;;;;;;13.10;7.72;;;;;;;;;;5046102;28;20454;-74
2022/04/29 08:20:53;;;;;;;12.77;7.90;;;;;;;;;;5057645;28;20069;-75
2022/04/29 08:23:19;;;;;;;20.75;8.18;;;;;;;;;;5049819;28;20033;-75
2022/04/29 08:25:46;;;;;;;11.15;7.25;;;;;;;;;;5050539;28;20048;-74
2022/04/29 08:28:13;;;;;;;12.68;7.40;;;;;;;;;;5050742;28;20482;-74
2022/04/29 08:30:44;;;;;;;11.20;7.65;;;;;;;;;;5048822;28;20033;-74
2022/04/29 08:33:14;;;;;;;13.82;7.20;;;;;;;;;;5047188;28;20037;-74
2022/04/29 08:35:40;;;;;;;13.93;6.82;;;;;;;;;;5034983;28;20153;-74
2022/04/29 08:38:10;;;;;;;14.90;8.52;;;;;;;;;;5046128;28;20021;-75
2022/04/29 08:40:40;;;;;;;11.98;7.47;;;;;;;;;;5062775;28;20044;-76
2022/04/29 08:43:07;;;;;;;14.27;8.82;;;;;;;;;;5044484;28;20028;-75
2022/04/29 08:45:33;;;;;;;10.82;8.27;;;;;;;;;;5040701;28;20207;-76
2022/04/29 08:47:59;;;;;;;13.52;7.90;;;;;;;;;;5045566;28;20021;-76
2022/04/29 08:50:26;;;;;;;9.07;7.57;;;;;;;;;;5040200;28;20037;-75
2022/04/29 08:52:52;;;;;;;13.85;7.88;;;;;;;;;;5038678;28;20522;-75
2022/04/29 09:00:48;;;;;;;12.85;8.45;;;;;;;;;;5058526;28;20083;-75
2022/04/29 09:03:16;;;;;;;12.73;7.70;;;;;;;;;;5058791;28;20059;-78
2022/04/29 09:05:43;;;;;;;12.82;8.90;;;;;;;;;;5040771;28;20021;-75
2022/04/29 09:08:12;;;;;;;12.70;9.05;;;;;;;;;;5038181;28;20422;-75
2022/04/29 09:10:47;;;;;;;15.88;9.05;;;;;;;;;;5040839;28;20048;-76
2022/04/29 09:13:14;;;;;;;10.98;7.70;;;;;;;;;;5044682;28;20111;-76
2022/04/29 09:15:47;;;;;;;12.30;7.93;;;;;;;;;;5039441;28;20094;-75
2022/04/29 09:18:13;;;;;;;15.27;8.32;;;;;;;;;;5048928;28;20025;-75
2022/04/29 09:20:40;;;;;;;14.45;7.72;;;;;;;;;;5043507;28;20025;-76
2022/04/29 09:23:08;;;;;;;12.13;7.97;;;;;;;;;;5041524;28;20146;-75
2022/04/29 09:25:37;;;;;;;11.70;8.25;;;;;;;;;;5045727;28;20387;-76
2022/04/29 09:28:05;;;;;;;10.48;7.85;;;;;;;;;;5047535;28;20021;-76
2022/04/29 09:30:38;;;;;;;14.27;8.25;;;;;;;;;;5049386;28;20036;-75
2022/04/29 09:33:08;;;;;;;13.65;7.07;;;;;;;;;;5045842;28;20025;-77
2022/04/29 09:35:35;;;;;;;16.08;8.60;;;;;;;;;;5048451;28;20093;-76
2022/04/29 09:40:48;;;;;;;14.93;8.07;;;;;;;;;;5047246;28;20059;-76
2022/04/29 09:43:14;;;;;;;14.70;8.07;;;;;;;;;;5052387;28;20036;-75
2022/04/29 09:45:40;;;;;;;15.70;8.25;;;;;;;;;;5063375;28;20025;-74
2022/04/29 09:48:09;;;;;;;14.73;7.53;;;;;;;;;;5059514;28;20049;-74
2022/04/29 09:50:46;;;;;;;14.32;9.18;;;;;;;;;;5060814;28;20025;-75
2022/04/29 09:53:20;;;;;;;14.95;8.07;;;;;;;;;;5060311;28;20052;-77
2022/04/29 09:56:05;;;;;;;16.40;7.70;;;;;;;;;;5049406;28;20100;-75
2022/04/29 09:58:31;;;;;;;16.08;7.78;;;;;;;;;;5047301;28;20159;-75
2022/04/29 10:00:58;;;;;;;13.45;8.02;;;;;;;;;;5048865;28;20025;-75
2022/04/29 10:03:24;;;;;;;13.90;7.80;;;;;;;;;;5042606;28;20100;-75
2022/04/29 10:05:51;;;;;;;11.68;7.63;;;;;;;;;;5049689;28;20032;-75
2022/04/29 10:08:19;;;;;;;15.57;8.50;;;;;;;;;;5048405;28;20111;-75
2022/04/29 10:10:46;;;;;;;16.10;8.43;;;;;;;;;;5051431;28;20025;-75
2022/04/29 10:13:13;;;;;;;12.82;8.43;;;;;;;;;;5036459;28;20040;-75
2022/04/29 10:15:39;;;;;;;15.50;8.88;;;;;;;;;;5044889;28;20098;-75
2022/04/29 10:23:38;;;;;;;15.27;7.55;;;;;;;;;;4977984;28;20195;-76
2022/04/29 10:26:05;;;;;;;12.52;7.35;;;;;;;;;;4988169;28;20030;-76
2022/04/29 10:28:31;;;;;;;14.52;8.15;;;;;;;;;;4985544;28;20023;-76
2022/04/29 10:31:02;;;;;;;10.82;7.72;;;;;;;;;;4990006;28;20094;-77
2022/04/29 10:33:28;;;;;;;13.63;8.10;;;;;;;;;;4985399;28;20027;-76
2022/04/29 10:35:58;;;;;;;13.10;7.60;;;;;;;;;;4988691;28;20505;-75
2022/04/29 10:38:25;;;;;;;14.07;8.23;;;;;;;;;;4987311;28;20037;-75
2022/04/29 10:41:10;;;;;;;13.48;8.85;;;;;;;;;;4990360;28;20041;-76
2022/04/29 10:43:46;;;;;;;13.33;7.47;;;;;;;;;;4986528;28;20467;-75
2022/04/29 10:46:15;;;;;;;13.98;8.85;;;;;;;;;;4989523;28;20034;-75
2022/04/29 10:48:41;;;;;;;13.02;7.60;;;;;;;;;;4987958;28;20046;-75
2022/04/29 10:51:11;;;;;;;13.05;7.35;;;;;;;;;;4992937;28;20037;-75
2022/04/29 10:53:43;;;;;;;13.88;9.02;;;;;;;;;;4988241;28;20038;-75
2022/04/29 10:56:28;;;;;;;18.70;10.48;;;;;;;;;;4974086;28;20039;-75
2022/04/29 10:58:58;;;;;;;13.50;8.63;;;;;;;;;;4989516;28;20142;-76
2022/04/29 11:01:25;;;;;;;16.42;8.57;;;;;;;;;;4987224;28;20037;-77
2022/04/29 11:03:51;;;;;;;13.88;7.82;;;;;;;;;;4987510;28;20030;-76
2022/04/29 11:06:17;;;;;;;10.98;7.13;;;;;;;;;;4981906;28;20130;-78
2022/04/29 11:08:44;;;;;;;13.10;8.18;;;;;;;;;;4990622;28;20034;-75
2022/04/29 11:11:10;;;;;;;13.68;8.10;;;;;;;;;;4987544;28;20185;-76
2022/04/29 11:13:37;;;;;;;12.20;7.90;;;;;;;;;;4987074;28;20034;-74
2022/04/29 11:16:21;;;;;;;9.75;6.93;;;;;;;;;;4991656;28;20534;-74
2022/04/29 11:19:07;;;;;;;14.15;7.72;;;;;;;;;;4996477;28;20035;-73
2022/04/29 11:27:03;;;;;;;10.27;7.27;;;;;;;;;;4982797;28;20497;-75
2022/04/29 11:29:29;;;;;;;12.07;7.05;;;;;;;;;;4983284;28;20141;-75
2022/04/29 11:31:56;;;;;;;10.15;6.80;;;;;;;;;;4980511;28;20064;-75
2022/04/29 11:34:22;;;;;;;12.93;6.70;;;;;;;;;;4983793;28;20038;-75
2022/04/29 11:36:56;;;;;;;12.23;7.80;;;;;;;;;;4985473;28;20117;-74
2022/04/29 11:39:22;;;;;;;12.90;7.43;;;;;;;;;;4983000;28;20030;-75
2022/04/29 11:41:54;;;;;;;13.88;7.72;;;;;;;;;;4981306;28;20263;-75
2022/04/29 11:44:38;;;;;;;13.60;7.70;;;;;;;;;;4980915;28;20109;-76
2022/04/29 11:47:05;;;;;;;11.45;7.65;;;;;;;;;;4981903;28;20110;-75
2022/04/29 11:49:34;;;;;;;11.23;7.13;;;;;;;;;;4979675;28;20030;-76
2022/04/29 11:52:19;;;;;;;14.18;8.13;;;;;;;;;;4978106;28;20030;-76
2022/04/29 11:54:49;;;;;;;13.07;7.55;;;;;;;;;;5001725;28;20116;-77
2022/04/29 11:57:15;;;;;;;10.05;7.55;;;;;;;;;;5008531;28;20427;-75
2022/04/29 11:59:41;;;;;;;11.48;7.65;;;;;;;;;;5010561;28;20034;-75
2022/04/29 12:02:11;;;;;;;11.75;6.97;;;;;;;;;;5007160;28;20084;-74
2022/04/29 12:04:37;;;;;;;16.77;7.82;;;;;;;;;;5005731;28;20358;-75
2022/04/29 12:07:05;;;;;;;7.50;6.10;;;;;;;;;;4995210;28;20188;-76
2022/04/29 12:09:34;;;;;;;9.18;6.63;;;;;;;;;;4999025;28;20022;-75
2022/04/29 12:12:04;;;;;;;12.63;6.90;;;;;;;;;;4997685;28;20026;-75
2022/04/29 12:14:30;;;;;;;7.53;6.45;;;;;;;;;;4995140;28;20057;-74
2022/04/29 12:16:56;;;;;;;9.07;6.63;;;;;;;;;;4998143;28;20468;-74
2022/04/29 12:19:22;;;;;;;11.93;6.63;;;;;;;;;;4998449;28;20038;-75
2022/04/29 12:21:58;;;;;;;15.02;7.65;;;;;;;;;;4999442;28;20048;-75
2022/04/29 12:24:27;;;;;;;6.78;5.88;;;;;;;;;;5008007;28;20392;-76
2022/04/29 12:27:04;;;;;;;8.30;5.90;;;;;;;;;;5002593;28;20075;-76
2022/04/29 12:29:31;;;;;;;12.77;9.00;;;;;;;;;;5003950;28;20100;-76
2022/04/29 12:34:51;;;;;;;9.63;6.93;;;;;;;;;;4995698;28;20755;-76
2022/04/29 12:37:19;;;;;;;12.48;7.43;;;;;;;;;;4999772;28;20034;-77
2022/04/29 12:39:51;;;;;;;10.73;7.03;;;;;;;;;;4999261;28;20326;-75
2022/04/29 12:42:21;;;;;;;11.93;7.05;;;;;;;;;;4995590;28;20396;-75
2022/04/29 12:45:12;;;;;;;12.52;7.32;;;;;;;;;;4996624;28;20498;-76
2022/04/29 12:47:42;;;;;;;10.93;6.78;;;;;;;;;;4991448;28;20038;-75
2022/04/29 12:50:22;;;;;;;8.85;7.22;;;;;;;;;;4989965;28;20029;-76
2022/04/29 12:53:09;;;;;;;9.85;7.35;;;;;;;;;;4996761;28;21239;-77
2022/04/29 12:55:36;;;;;;;9.38;6.88;;;;;;;;;;4999281;28;20395;-77
2022/04/29 12:58:04;;;;;;;12.35;7.15;;;;;;;;;;4996693;28;20037;-76
2022/04/29 13:00:30;;;;;;;16.05;7.47;;;;;;;;;;4997036;28;20448;-75
2022/04/29 13:03:07;;;;;;;10.38;7.32;;;;;;;;;;5006078;28;20110;-74
2022/04/29 13:05:34;;;;;;;10.75;7.68;;;;;;;;;;4996941;28;20082;-77
2022/04/29 13:08:01;;;;;;;9.85;6.53;;;;;;;;;;4998181;28;20511;-77
2022/04/29 13:10:27;;;;;;;9.55;6.90;;;;;;;;;;4999142;28;20026;-75
2022/04/29 13:12:54;;;;;;;9.10;7.88;;;;;;;;;;5017149;28;20111;-76
2022/04/29 13:15:20;;;;;;;10.95;7.47;;;;;;;;;;5014519;28;20168;-74
2022/04/29 13:17:46;;;;;;;11.45;7.80;;;;;;;;;;5012538;28;20034;-75
2022/04/29 13:20:12;;;;;;;11.68;7.93;;;;;;;;;;5010039;28;20053;-75
2022/04/29 13:22:39;;;;;;;10.38;8.30;;;;;;;;;;5006358;28;20563;-76
2022/04/29 13:25:08;;;;;;;9.80;7.60;;;;;;;;;;5013775;28;20109;-76
2022/04/29 13:27:34;;;;;;;9.73;7.45;;;;;;;;;;5006212;28;20488;-76
2022/04/29 13:30:08;;;;;;;12.38;8.25;;;;;;;;;;4995510;28;20033;-75
2022/04/29 13:32:34;;;;;;;9.45;6.60;;;;;;;;;;4991314;28;20026;-76
2022/04/29 13:35:00;;;;;;;12.35;9.20;;;;;;;;;;4996468;28;20029;-75
2022/04/29 13:37:27;;;;;;;11.65;7.70;;;;;;;;;;4998689;28;20084;-76
2022/04/29 13:39:54;;;;;;;11.43;8.00;;;;;;;;;;4997249;28;20063;-77
2022/04/29 13:42:20;;;;;;;8.63;7.55;;;;;;;;;;4999249;28;20036;-75
2022/04/29 13:44:46;;;;;;;12.68;8.27;;;;;;;;;;5012392;28;20706;-74
2022/04/29 13:47:14;;;;;;;11.88;7.63;;;;;;;;;;4996817;28;20092;-75
2022/04/29 13:49:40;;;;;;;9.27;7.25;;;;;;;;;;5001655;28;20457;-75
2022/04/29 13:54:51;;;;;;;9.82;6.68;;;;;;;;;;4998364;28;20057;-76
2022/04/29 13:57:17;;;;;;;12.45;7.65;;;;;;;;;;4998922;28;20042;-75
2022/04/29 13:59:43;;;;;;;9.30;7.22;;;;;;;;;;4998178;28;20146;-76
2022/04/29 14:02:09;;;;;;;13.90;7.18;;;;;;;;;;4997414;28;20026;-74
2022/04/29 14:04:35;;;;;;;11.60;7.38;;;;;;;;;;4995681;28;20033;-75
2022/04/29 14:07:02;;;;;;;12.18;8.10;;;;;;;;;;4997333;28;20049;-75
2022/04/29 14:09:28;;;;;;;10.20;7.85;;;;;;;;;;4995837;28;20107;-75
2022/04/29 14:11:54;;;;;;;10.57;7.57;;;;;;;;;;5000673;28;20014;-75
2022/04/29 14:14:20;;;;;;;9.63;7.47;;;;;;;;;;4995342;28;20125;-73
2022/04/29 14:16:47;;;;;;;11.60;7.63;;;;;;;;;;5007549;28;20030;-74
2022/04/29 14:19:13;;;;;;;11.05;8.25;;;;;;;;;;5004850;28;20056;-75
2022/04/29 14:21:39;;;;;;;12.73;7.82;;;;;;;;;;5004985;28;20038;-74
2022/04/29 14:24:06;;;;;;;14.27;8.18;;;;;;;;;;4996159;28;20193;-75
2022/04/29 14:26:32;;;;;;;10.73;7.97;;;;;;;;;;4994280;28;20074;-74
2022/04/29 14:28:59;;;;;;;12.48;7.80;;;;;;;;;;4998029;28;20093;-75
2022/04/29 14:31:25;;;;;;;11.70;7.90;;;;;;;;;;5010591;28;20105;-75
2022/04/29 14:33:51;;;;;;;10.88;7.80;;;;;;;;;;5006504;28;20040;-75
2022/04/29 14:36:19;;;;;;;15.57;8.00;;;;;;;;;;5001811;28;20090;-74
2022/04/29 14:38:45;;;;;;;13.13;7.85;;;;;;;;;;5000873;28;20507;-75
2022/04/29 14:41:12;;;;;;;10.13;7.85;;;;;;;;;;5000961;28;20110;-75
2022/04/29 14:43:39;;;;;;;16.00;7.55;;;;;;;;;;5008146;28;20390;-75
2022/04/29 14:46:05;;;;;;;12.88;9.13;;;;;;;;;;4993883;28;20495;-75
2022/04/29 14:48:31;;;;;;;16.42;9.13;;;;;;;;;;4998727;28;20092;-75
2022/04/29 14:50:57;;;;;;;14.35;8.52;;;;;;;;;;4997126;28;20339;-76
2022/04/29 14:53:23;;;;;;;12.23;8.27;;;;;;;;;;5005308;28;20492;-76
2022/04/29 14:55:49;;;;;;;11.80;7.50;;;;;;;;;;5002620;28;20030;-75
2022/04/29 14:58:15;;;;;;;11.38;8.73;;;;;;;;;;5017387;28;20030;-75
2022/04/29 15:00:42;;;;;;;14.82;9.18;;;;;;;;;;4997046;28;20392;-74
2022/04/29 15:03:09;;;;;;;13.48;8.40;;;;;;;;;;5002700;28;20480;-75